Time;durP1;ratioP1;P1;durP2;ratioP2;P2;SDS_P1;SDS_P2;PMS_P1;PMS_P2;Temp;Humidity;BMP_temperature;BMP_pressure;BME280_temperature;BME280_humidity;BME280_pressure;Samples;Min_cycle;Max_cycle;Signal;HPM_P1;HPM_P2
2023/11/22 00:00:09;;;;;;;9.43;6.87;;;;;;;;;;5022450;28;20180;-45
2023/11/22 00:02:35;;;;;;;9.75;7.70;;;;;;;;;;5021785;28;20527;-44
2023/11/22 00:05:03;;;;;;;9.77;7.80;;;;;;;;;;5021675;28;20665;-44
2023/11/22 00:07:29;;;;;;;9.45;6.78;;;;;;;;;;5026635;28;20199;-45
2023/11/22 00:09:56;;;;;;;9.43;7.23;;;;;;;;;;5024939;28;20179;-44
2023/11/22 00:12:22;;;;;;;7.75;5.15;;;;;;;;;;5019137;28;20415;-45
2023/11/22 00:14:48;;;;;;;8.95;7.10;;;;;;;;;;5019249;28;20211;-44
2023/11/22 00:17:17;;;;;;;10.98;9.15;;;;;;;;;;5022806;28;20196;-44
2023/11/22 00:19:44;;;;;;;9.05;6.55;;;;;;;;;;5024744;28;20165;-44
2023/11/22 00:22:13;;;;;;;11.50;9.50;;;;;;;;;;5022527;28;20202;-44
2023/11/22 00:24:39;;;;;;;8.02;5.93;;;;;;;;;;5023652;28;20176;-44
2023/11/22 00:27:06;;;;;;;9.77;7.80;;;;;;;;;;5023433;28;20224;-44
2023/11/22 00:29:32;;;;;;;8.90;6.85;;;;;;;;;;5018121;28;20188;-44
2023/11/22 00:31:58;;;;;;;9.88;7.55;;;;;;;;;;5024441;28;20179;-44
2023/11/22 00:34:24;;;;;;;8.82;6.50;;;;;;;;;;5022325;28;20227;-44
2023/11/22 00:36:53;;;;;;;9.38;6.82;;;;;;;;;;5021591;28;20590;-44
2023/11/22 00:39:19;;;;;;;9.23;6.97;;;;;;;;;;5022764;28;20196;-44
2023/11/22 00:41:46;;;;;;;9.83;7.17;;;;;;;;;;5032194;28;20209;-44
2023/11/22 00:44:12;;;;;;;9.43;7.22;;;;;;;;;;5022477;28;20454;-44
2023/11/22 00:46:38;;;;;;;9.90;8.03;;;;;;;;;;5018411;28;20224;-44
2023/11/22 00:49:04;;;;;;;10.90;8.00;;;;;;;;;;5030570;28;20407;-44
2023/11/22 00:51:31;;;;;;;10.27;9.00;;;;;;;;;;5012976;28;20415;-44
2023/11/22 00:53:57;;;;;;;9.93;8.05;;;;;;;;;;5030566;28;20182;-44
2023/11/22 00:56:23;;;;;;;9.63;7.15;;;;;;;;;;5018336;28;20617;-45
2023/11/22 00:58:49;;;;;;;9.37;7.23;;;;;;;;;;5022168;28;20176;-44
2023/11/22 01:01:16;;;;;;;9.80;7.18;;;;;;;;;;5026593;28;20447;-44
2023/11/22 01:03:42;;;;;;;10.35;7.60;;;;;;;;;;5012890;28;20170;-44
2023/11/22 01:06:09;;;;;;;10.90;7.37;;;;;;;;;;5013594;28;20203;-45
2023/11/22 01:08:36;;;;;;;8.95;6.35;;;;;;;;;;5022312;28;20406;-44
2023/11/22 01:11:03;;;;;;;9.23;6.40;;;;;;;;;;5021789;28;20714;-44
2023/11/22 01:13:29;;;;;;;8.77;6.35;;;;;;;;;;5020414;28;20195;-45
2023/11/22 01:15:55;;;;;;;9.73;6.93;;;;;;;;;;5026607;28;20279;-44
2023/11/22 01:18:21;;;;;;;9.57;6.83;;;;;;;;;;5020342;28;20241;-44
2023/11/22 01:20:47;;;;;;;9.25;6.68;;;;;;;;;;5020558;28;20502;-44
2023/11/22 01:23:14;;;;;;;10.63;7.27;;;;;;;;;;5021658;28;20732;-44
2023/11/22 01:25:40;;;;;;;15.52;11.48;;;;;;;;;;5019169;28;20504;-44
2023/11/22 01:28:06;;;;;;;10.93;7.53;;;;;;;;;;5011867;28;20275;-44
2023/11/22 01:30:32;;;;;;;8.18;5.50;;;;;;;;;;5024881;28;20968;-45
2023/11/22 01:32:58;;;;;;;9.45;6.28;;;;;;;;;;5023158;28;20173;-44
2023/11/22 01:35:24;;;;;;;9.70;6.67;;;;;;;;;;5016573;28;20339;-44
2023/11/22 01:37:50;;;;;;;10.47;7.10;;;;;;;;;;5031135;28;20422;-44
2023/11/22 01:40:19;;;;;;;9.85;6.72;;;;;;;;;;5012078;28;20409;-44
2023/11/22 01:42:46;;;;;;;10.25;7.28;;;;;;;;;;5028429;28;20189;-44
2023/11/22 01:45:12;;;;;;;9.70;6.80;;;;;;;;;;5018970;28;20196;-44
2023/11/22 01:47:39;;;;;;;9.82;7.03;;;;;;;;;;5020192;28;20192;-44
2023/11/22 01:50:08;;;;;;;9.73;6.90;;;;;;;;;;5026902;28;20181;-45
2023/11/22 01:52:35;;;;;;;11.73;8.13;;;;;;;;;;5012895;28;20532;-44
2023/11/22 01:55:04;;;;;;;8.27;5.97;;;;;;;;;;5031592;28;20178;-44
2023/11/22 01:57:30;;;;;;;10.50;7.38;;;;;;;;;;5013930;28;20218;-45
2023/11/22 01:59:56;;;;;;;10.13;6.85;;;;;;;;;;5025027;28;20176;-44
2023/11/22 02:02:22;;;;;;;12.02;8.15;;;;;;;;;;5021616;28;20572;-44
2023/11/22 02:04:48;;;;;;;8.07;5.65;;;;;;;;;;5016553;28;20320;-44
2023/11/22 02:07:14;;;;;;;11.50;7.77;;;;;;;;;;5030263;28;20308;-44
2023/11/22 02:09:40;;;;;;;9.23;6.73;;;;;;;;;;5011639;28;20405;-44
2023/11/22 02:12:07;;;;;;;9.90;7.30;;;;;;;;;;5028434;28;20417;-45
2023/11/22 02:14:32;;;;;;;9.35;6.45;;;;;;;;;;5018575;28;20420;-44
2023/11/22 02:16:58;;;;;;;9.40;6.80;;;;;;;;;;5011837;28;20200;-44
2023/11/22 02:19:24;;;;;;;9.73;7.17;;;;;;;;;;5011322;28;20481;-44
2023/11/22 02:21:52;;;;;;;10.90;8.20;;;;;;;;;;5011513;28;20440;-44
2023/11/22 02:24:18;;;;;;;9.82;7.65;;;;;;;;;;5011699;28;20694;-44
2023/11/22 02:26:45;;;;;;;9.50;6.97;;;;;;;;;;4995201;28;20200;-45
2023/11/22 02:29:12;;;;;;;9.65;6.97;;;;;;;;;;5004334;28;20424;-44
2023/11/22 02:31:39;;;;;;;9.40;6.75;;;;;;;;;;5003016;28;20182;-44
2023/11/22 02:34:05;;;;;;;9.07;6.53;;;;;;;;;;4996650;28;20566;-44
2023/11/22 02:36:31;;;;;;;11.20;7.97;;;;;;;;;;5010614;28;20199;-44
2023/11/22 02:38:57;;;;;;;8.67;6.30;;;;;;;;;;4991790;28;20487;-45
2023/11/22 02:41:25;;;;;;;9.40;6.83;;;;;;;;;;5008002;28;20822;-44
2023/11/22 02:43:51;;;;;;;9.45;6.60;;;;;;;;;;4998995;28;20415;-45
2023/11/22 02:46:17;;;;;;;7.93;6.03;;;;;;;;;;4999927;28;20291;-44
2023/11/22 02:48:45;;;;;;;8.15;6.25;;;;;;;;;;5007006;28;20658;-44
2023/11/22 02:51:11;;;;;;;11.13;8.25;;;;;;;;;;4992268;28;20172;-44
2023/11/22 02:53:37;;;;;;;10.85;8.45;;;;;;;;;;5011390;28;20173;-44
2023/11/22 02:56:03;;;;;;;12.63;8.90;;;;;;;;;;4994823;28;20226;-44
2023/11/22 02:58:30;;;;;;;10.30;7.93;;;;;;;;;;5003773;28;20778;-44
2023/11/22 03:00:57;;;;;;;9.73;7.63;;;;;;;;;;5002913;28;20408;-44
2023/11/22 03:03:23;;;;;;;10.23;8.23;;;;;;;;;;4999016;28;20173;-44
2023/11/22 03:05:50;;;;;;;9.90;7.90;;;;;;;;;;5014151;28;20248;-44
2023/11/22 03:08:17;;;;;;;11.10;8.77;;;;;;;;;;4995027;28;20214;-44
2023/11/22 03:10:43;;;;;;;10.25;8.30;;;;;;;;;;5011288;28;20169;-44
2023/11/22 03:13:08;;;;;;;10.67;8.60;;;;;;;;;;5002544;28;20174;-44
2023/11/22 03:15:35;;;;;;;16.93;13.77;;;;;;;;;;5007442;28;20938;-44
2023/11/22 03:18:01;;;;;;;11.98;9.77;;;;;;;;;;5030838;28;20438;-44
2023/11/22 03:20:27;;;;;;;11.25;9.07;;;;;;;;;;5022365;28;20543;-44
2023/11/22 03:22:54;;;;;;;10.73;8.57;;;;;;;;;;5021358;28;20274;-45
2023/11/22 03:25:20;;;;;;;13.40;10.63;;;;;;;;;;5031358;28;20178;-44
2023/11/22 03:27:47;;;;;;;10.90;8.73;;;;;;;;;;5022285;28;20279;-45
2023/11/22 03:30:14;;;;;;;10.68;8.82;;;;;;;;;;5023903;28;20668;-44
2023/11/22 03:32:41;;;;;;;10.70;8.75;;;;;;;;;;5026383;28;20678;-44
2023/11/22 03:35:08;;;;;;;12.40;9.25;;;;;;;;;;5026614;28;20180;-44
2023/11/22 03:37:34;;;;;;;10.38;8.00;;;;;;;;;;5021061;28;20290;-44
2023/11/22 03:40:00;;;;;;;10.30;7.80;;;;;;;;;;5018644;28;20181;-44
2023/11/22 03:42:29;;;;;;;9.13;6.90;;;;;;;;;;5025106;28;20230;-44
2023/11/22 03:44:55;;;;;;;11.82;8.55;;;;;;;;;;5024233;28;20395;-44
2023/11/22 03:47:20;;;;;;;10.83;8.07;;;;;;;;;;5024410;28;20219;-44
2023/11/22 03:49:46;;;;;;;10.87;7.83;;;;;;;;;;5024024;28;20531;-44
2023/11/22 03:52:14;;;;;;;10.70;7.37;;;;;;;;;;5024738;28;20422;-44
2023/11/22 03:54:40;;;;;;;9.52;6.45;;;;;;;;;;5020609;28;20771;-44
2023/11/22 03:57:06;;;;;;;10.00;6.80;;;;;;;;;;5024429;28;20199;-44
2023/11/22 03:59:32;;;;;;;10.00;7.03;;;;;;;;;;5024137;28;20403;-44
2023/11/22 04:01:58;;;;;;;9.82;7.13;;;;;;;;;;5021913;28;20561;-44
2023/11/22 04:04:24;;;;;;;11.03;7.87;;;;;;;;;;5024489;28;20163;-45
2023/11/22 04:06:50;;;;;;;8.83;6.03;;;;;;;;;;5021473;28;20811;-44
2023/11/22 04:09:20;;;;;;;10.55;7.25;;;;;;;;;;5022289;28;20903;-44
2023/11/22 04:11:46;;;;;;;11.07;7.65;;;;;;;;;;5026796;28;20212;-44
2023/11/22 04:14:12;;;;;;;10.95;7.75;;;;;;;;;;5026708;28;20180;-44
2023/11/22 04:16:38;;;;;;;10.93;8.02;;;;;;;;;;5022839;28;20701;-44
2023/11/22 04:19:04;;;;;;;11.65;8.75;;;;;;;;;;5019447;28;20659;-44
2023/11/22 04:21:30;;;;;;;11.95;9.20;;;;;;;;;;5022178;28;20597;-44
2023/11/22 04:23:56;;;;;;;9.50;7.67;;;;;;;;;;5021610;28;20172;-44
2023/11/22 04:26:22;;;;;;;11.33;8.70;;;;;;;;;;5024011;28;20498;-45
2023/11/22 04:28:49;;;;;;;11.18;8.63;;;;;;;;;;5024021;28;20454;-44
2023/11/22 04:31:15;;;;;;;12.13;9.47;;;;;;;;;;5025915;28;20255;-44
2023/11/22 04:33:41;;;;;;;11.50;9.17;;;;;;;;;;5021503;28;20410;-44
2023/11/22 04:36:07;;;;;;;12.50;9.77;;;;;;;;;;5017687;28;20469;-44
2023/11/22 04:38:34;;;;;;;10.63;7.80;;;;;;;;;;5024535;28;20440;-44
2023/11/22 04:41:00;;;;;;;10.32;8.10;;;;;;;;;;5022738;28;20172;-44
2023/11/22 04:43:26;;;;;;;12.40;9.40;;;;;;;;;;5021098;28;20263;-44
2023/11/22 04:45:52;;;;;;;11.68;8.43;;;;;;;;;;5021493;28;20180;-44
2023/11/22 04:48:18;;;;;;;11.93;9.07;;;;;;;;;;5023801;28;20562;-44
2023/11/22 04:50:44;;;;;;;10.60;8.05;;;;;;;;;;5020359;28;20494;-44
2023/11/22 04:53:11;;;;;;;11.30;8.43;;;;;;;;;;5022860;28;20263;-44
2023/11/22 04:55:37;;;;;;;11.80;9.30;;;;;;;;;;5023965;28;20464;-44
2023/11/22 04:58:03;;;;;;;11.85;8.50;;;;;;;;;;5020559;28;20192;-44
2023/11/22 05:00:29;;;;;;;11.18;8.20;;;;;;;;;;5023281;28;20168;-44
2023/11/22 05:02:55;;;;;;;10.75;8.15;;;;;;;;;;5020690;28;20203;-44
2023/11/22 05:05:22;;;;;;;11.53;8.63;;;;;;;;;;5022018;28;20646;-44
2023/11/22 05:07:48;;;;;;;10.73;8.00;;;;;;;;;;5020418;28;20439;-44
2023/11/22 05:10:14;;;;;;;11.55;8.65;;;;;;;;;;5025785;28;20172;-44
2023/11/22 05:12:40;;;;;;;11.45;8.65;;;;;;;;;;5022495;28;20179;-44
2023/11/22 05:15:07;;;;;;;12.73;9.38;;;;;;;;;;5023283;28;20182;-44
2023/11/22 05:17:34;;;;;;;12.25;9.32;;;;;;;;;;5031896;28;20191;-44
2023/11/22 05:20:00;;;;;;;12.05;9.07;;;;;;;;;;5014994;28;20703;-44
2023/11/22 05:22:25;;;;;;;11.93;8.93;;;;;;;;;;5024892;28;20203;-44
2023/11/22 05:24:51;;;;;;;10.97;8.90;;;;;;;;;;5022921;28;20184;-44
2023/11/22 05:27:17;;;;;;;10.67;8.30;;;;;;;;;;5016624;28;20865;-44
2023/11/22 05:29:43;;;;;;;12.68;9.13;;;;;;;;;;5031014;28;20437;-44
2023/11/22 05:32:10;;;;;;;11.10;8.13;;;;;;;;;;5012318;28;20271;-45
2023/11/22 05:34:37;;;;;;;12.20;8.88;;;;;;;;;;5012385;28;20180;-44
2023/11/22 05:37:05;;;;;;;12.50;9.82;;;;;;;;;;5011647;28;20286;-44
2023/11/22 05:39:31;;;;;;;11.88;9.65;;;;;;;;;;5003252;28;20169;-44
2023/11/22 05:41:57;;;;;;;12.17;9.57;;;;;;;;;;4996947;28;20212;-44
2023/11/22 05:44:25;;;;;;;13.00;10.90;;;;;;;;;;5011336;28;20410;-44
2023/11/22 05:46:51;;;;;;;11.85;10.55;;;;;;;;;;4992222;28;20428;-44
2023/11/22 05:49:17;;;;;;;11.83;10.37;;;;;;;;;;5008671;28;20195;-44
2023/11/22 05:51:43;;;;;;;10.70;9.60;;;;;;;;;;4999482;28;20427;-44
2023/11/22 05:54:12;;;;;;;12.23;10.83;;;;;;;;;;5000703;28;20424;-44
2023/11/22 05:56:38;;;;;;;11.73;9.80;;;;;;;;;;5006861;28;20444;-44
2023/11/22 05:59:04;;;;;;;14.03;11.70;;;;;;;;;;4992740;28;20173;-44
2023/11/22 06:01:30;;;;;;;10.35;9.02;;;;;;;;;;5012046;28;20553;-44
2023/11/22 06:03:56;;;;;;;11.98;10.32;;;;;;;;;;4995503;28;20456;-44
2023/11/22 06:06:22;;;;;;;12.48;11.13;;;;;;;;;;5004162;28;20200;-44
2023/11/22 06:08:49;;;;;;;12.45;10.50;;;;;;;;;;5003396;28;20169;-44
2023/11/22 06:11:15;;;;;;;11.73;10.50;;;;;;;;;;4996421;28;20263;-44
2023/11/22 06:13:42;;;;;;;12.55;9.63;;;;;;;;;;5010822;28;20214;-44
2023/11/22 06:16:09;;;;;;;13.07;11.43;;;;;;;;;;4992311;28;20169;-44
2023/11/22 06:18:40;;;;;;;11.77;9.90;;;;;;;;;;5008327;28;20599;-44
2023/11/22 06:21:06;;;;;;;10.93;9.57;;;;;;;;;;4998839;28;20173;-44
2023/11/22 06:23:32;;;;;;;12.48;11.23;;;;;;;;;;5008224;28;20276;-44
2023/11/22 06:25:57;;;;;;;11.60;8.90;;;;;;;;;;5006555;28;20265;-44
2023/11/22 06:28:23;;;;;;;14.67;13.10;;;;;;;;;;4992637;28;20415;-44
2023/11/22 06:30:49;;;;;;;13.57;11.43;;;;;;;;;;5011768;28;20529;-44
2023/11/22 06:33:15;;;;;;;12.10;9.63;;;;;;;;;;4995286;28;20555;-43
2023/11/22 06:35:42;;;;;;;15.57;13.80;;;;;;;;;;5003522;28;20411;-44
2023/11/22 06:38:08;;;;;;;12.80;10.70;;;;;;;;;;5005494;28;20435;-44
2023/11/22 06:40:34;;;;;;;13.43;10.15;;;;;;;;;;4999328;28;20180;-44
2023/11/22 06:43:00;;;;;;;12.40;9.90;;;;;;;;;;5015292;28;20557;-45
2023/11/22 06:45:26;;;;;;;16.33;13.23;;;;;;;;;;4995577;28;20838;-44
2023/11/22 06:47:52;;;;;;;11.77;9.35;;;;;;;;;;5011031;28;20433;-44
2023/11/22 06:50:18;;;;;;;12.55;10.52;;;;;;;;;;5003240;28;20180;-45
2023/11/22 06:52:47;;;;;;;12.32;9.48;;;;;;;;;;5003137;28;20531;-44
2023/11/22 06:55:12;;;;;;;14.10;10.65;;;;;;;;;;5010869;28;20180;-44
2023/11/22 06:57:39;;;;;;;12.47;9.67;;;;;;;;;;4995115;28;20537;-44
2023/11/22 07:00:05;;;;;;;11.88;9.30;;;;;;;;;;5015067;28;20419;-44
2023/11/22 07:02:37;;;;;;;12.65;10.75;;;;;;;;;;4998112;28;20203;-44
2023/11/22 07:05:07;;;;;;;12.10;9.98;;;;;;;;;;5008778;28;20176;-44
2023/11/22 07:07:33;;;;;;;14.93;11.35;;;;;;;;;;5004644;28;20187;-44
2023/11/22 07:09:59;;;;;;;11.67;8.37;;;;;;;;;;4999829;28;20176;-43
2023/11/22 07:12:26;;;;;;;11.47;8.30;;;;;;;;;;5013820;28;20407;-44
2023/11/22 07:14:52;;;;;;;10.50;8.25;;;;;;;;;;4995163;28;20423;-44
2023/11/22 07:17:18;;;;;;;12.20;9.57;;;;;;;;;;5011086;28;20199;-44
2023/11/22 07:19:46;;;;;;;11.83;8.23;;;;;;;;;;5001932;28;20199;-44
2023/11/22 07:22:17;;;;;;;11.93;7.90;;;;;;;;;;5003456;28;20450;-44
2023/11/22 07:24:47;;;;;;;11.93;8.50;;;;;;;;;;5014029;28;20264;-44
2023/11/22 07:27:13;;;;;;;13.93;11.95;;;;;;;;;;5012234;28;20271;-44
2023/11/22 07:29:43;;;;;;;11.38;7.45;;;;;;;;;;4994820;28;20629;-44
2023/11/22 07:32:09;;;;;;;11.73;8.82;;;;;;;;;;5013069;28;20651;-44
2023/11/22 07:34:35;;;;;;;11.50;9.68;;;;;;;;;;5000255;28;20177;-44
2023/11/22 07:37:01;;;;;;;11.10;9.65;;;;;;;;;;5004278;28;20196;-44
2023/11/22 07:39:28;;;;;;;11.02;7.15;;;;;;;;;;5008276;28;20633;-44
2023/11/22 07:41:54;;;;;;;12.93;8.10;;;;;;;;;;4996425;28;20208;-44
2023/11/22 07:44:21;;;;;;;11.70;8.95;;;;;;;;;;5014212;28;20172;-44
2023/11/22 07:46:47;;;;;;;12.02;10.02;;;;;;;;;;4996212;28;20625;-44
2023/11/22 07:49:16;;;;;;;10.93;7.67;;;;;;;;;;5007771;28;20208;-44
2023/11/22 07:51:41;;;;;;;9.75;6.85;;;;;;;;;;5003825;28;20442;-44
2023/11/22 07:54:08;;;;;;;11.07;8.27;;;;;;;;;;5000484;28;20592;-44
2023/11/22 07:56:34;;;;;;;11.70;8.32;;;;;;;;;;5011764;28;20793;-44
2023/11/22 07:59:00;;;;;;;11.80;9.57;;;;;;;;;;4997832;28;20268;-44
2023/11/22 08:01:29;;;;;;;9.85;7.40;;;;;;;;;;5029776;28;20278;-44
2023/11/22 08:03:55;;;;;;;12.23;9.15;;;;;;;;;;5021671;28;20172;-44
2023/11/22 08:06:21;;;;;;;11.40;8.90;;;;;;;;;;5023878;28;20184;-44
2023/11/22 08:08:47;;;;;;;12.33;10.03;;;;;;;;;;5027911;28;20333;-43
2023/11/22 08:11:17;;;;;;;11.73;9.40;;;;;;;;;;5023262;28;20434;-44
2023/11/22 08:13:44;;;;;;;9.80;7.65;;;;;;;;;;5021700;28;20172;-44
2023/11/22 08:16:13;;;;;;;12.30;9.07;;;;;;;;;;5026981;28;20271;-44
2023/11/22 08:18:40;;;;;;;12.25;10.50;;;;;;;;;;5022564;28;20172;-44
2023/11/22 08:21:06;;;;;;;10.18;6.68;;;;;;;;;;5019242;28;20246;-43
2023/11/22 08:23:32;;;;;;;10.15;6.88;;;;;;;;;;5021521;28;20184;-44
2023/11/22 08:26:01;;;;;;;11.63;8.93;;;;;;;;;;5021156;28;20178;-43
2023/11/22 08:28:28;;;;;;;11.27;9.50;;;;;;;;;;5013410;28;20478;-43
2023/11/22 08:30:55;;;;;;;11.30;9.52;;;;;;;;;;5021276;28;20267;-43
2023/11/22 08:33:22;;;;;;;12.68;11.43;;;;;;;;;;5025566;28;20209;-44
2023/11/22 08:35:50;;;;;;;11.98;10.57;;;;;;;;;;5022022;28;20621;-45
2023/11/22 08:38:17;;;;;;;13.05;11.75;;;;;;;;;;5017341;28;20189;-44
2023/11/22 08:40:43;;;;;;;11.63;10.45;;;;;;;;;;5024456;28;20664;-44
2023/11/22 08:43:09;;;;;;;12.05;10.85;;;;;;;;;;5022080;28;20292;-44
2023/11/22 08:45:35;;;;;;;18.90;17.00;;;;;;;;;;5023654;28;20271;-44
2023/11/22 08:48:01;;;;;;;15.18;13.80;;;;;;;;;;5020934;28;20924;-44
2023/11/22 08:50:27;;;;;;;16.90;15.50;;;;;;;;;;5023416;28;20248;-44
2023/11/22 08:52:53;;;;;;;12.38;11.18;;;;;;;;;;5018717;28;20468;-44
2023/11/22 08:55:24;;;;;;;14.02;12.77;;;;;;;;;;5028288;28;20187;-44
2023/11/22 08:57:53;;;;;;;15.63;14.23;;;;;;;;;;5025111;28;20776;-44
2023/11/22 09:00:22;;;;;;;18.50;16.90;;;;;;;;;;5019459;28;20220;-43
2023/11/22 09:02:51;;;;;;;18.73;17.13;;;;;;;;;;5019981;28;20206;-44
2023/11/22 09:05:19;;;;;;;20.05;18.25;;;;;;;;;;5021843;28;20178;-45
2023/11/22 09:07:45;;;;;;;17.05;15.65;;;;;;;;;;5020468;28;20317;-45
2023/11/22 09:10:12;;;;;;;18.77;17.27;;;;;;;;;;5021973;28;20606;-44
2023/11/22 09:12:40;;;;;;;21.20;19.60;;;;;;;;;;5031331;28;20500;-44
2023/11/22 09:15:09;;;;;;;23.55;21.70;;;;;;;;;;5030023;28;20535;-44
2023/11/22 09:17:35;;;;;;;18.60;17.13;;;;;;;;;;5012211;28;20194;-44
2023/11/22 09:20:03;;;;;;;20.83;19.33;;;;;;;;;;5029487;28;20176;-44
2023/11/22 09:22:29;;;;;;;20.40;18.80;;;;;;;;;;5018779;28;20656;-44
2023/11/22 09:24:54;;;;;;;22.97;21.37;;;;;;;;;;5021385;28;20400;-44
2023/11/22 09:27:20;;;;;;;25.50;23.70;;;;;;;;;;5026957;28;20948;-44
2023/11/22 09:29:47;;;;;;;25.00;23.20;;;;;;;;;;5013048;28;20419;-44
2023/11/22 09:32:13;;;;;;;24.57;22.87;;;;;;;;;;5032088;28;20476;-45
2023/11/22 09:34:39;;;;;;;25.33;23.63;;;;;;;;;;5015012;28;20406;-44
2023/11/22 09:37:05;;;;;;;27.83;26.00;;;;;;;;;;5024527;28;20426;-45
2023/11/22 09:39:32;;;;;;;24.93;23.33;;;;;;;;;;5023023;28;20420;-44
2023/11/22 09:41:59;;;;;;;26.13;24.37;;;;;;;;;;5016530;28;20457;-44
2023/11/22 09:44:25;;;;;;;29.90;28.00;;;;;;;;;;5013697;28;20781;-44
2023/11/22 09:46:53;;;;;;;21.90;20.33;;;;;;;;;;5016725;28;20203;-44
2023/11/22 09:49:23;;;;;;;28.20;26.33;;;;;;;;;;5028599;28;21018;-45
2023/11/22 09:51:51;;;;;;;24.10;22.42;;;;;;;;;;5018245;28;20189;-44
2023/11/22 09:54:18;;;;;;;27.25;25.40;;;;;;;;;;5021178;28;20172;-44
2023/11/22 09:56:50;;;;;;;25.20;23.60;;;;;;;;;;5025614;28;20575;-44
2023/11/22 09:59:17;;;;;;;25.27;23.48;;;;;;;;;;5013005;28;20187;-44
2023/11/22 10:01:43;;;;;;;25.65;23.85;;;;;;;;;;5031764;28;20203;-44
2023/11/22 10:04:09;;;;;;;24.10;22.40;;;;;;;;;;5013194;28;20697;-44
2023/11/22 10:06:35;;;;;;;23.63;21.93;;;;;;;;;;5025157;28;20430;-43
2023/11/22 10:09:08;;;;;;;25.13;23.02;;;;;;;;;;5020722;28;20794;-44
2023/11/22 10:11:36;;;;;;;24.42;22.55;;;;;;;;;;5019128;28;20617;-44
2023/11/22 10:14:02;;;;;;;20.17;18.73;;;;;;;;;;5032352;28;20234;-44
2023/11/22 10:16:28;;;;;;;20.15;18.75;;;;;;;;;;5015541;28;20192;-44
2023/11/22 10:18:54;;;;;;;23.70;21.97;;;;;;;;;;5033860;28;20202;-44
2023/11/22 10:21:23;;;;;;;22.35;20.70;;;;;;;;;;5019469;28;20411;-44
2023/11/22 10:23:51;;;;;;;25.13;23.13;;;;;;;;;;5014490;28;20168;-44
2023/11/22 10:26:17;;;;;;;24.88;22.83;;;;;;;;;;5006396;28;20255;-44
2023/11/22 10:28:44;;;;;;;18.92;17.63;;;;;;;;;;4998192;28;20278;-44
2023/11/22 10:31:10;;;;;;;19.58;18.08;;;;;;;;;;5015678;28;20243;-44
2023/11/22 10:33:43;;;;;;;20.40;18.97;;;;;;;;;;4996468;28;20211;-44
2023/11/22 10:36:09;;;;;;;21.85;20.20;;;;;;;;;;5011211;28;20768;-44
2023/11/22 10:38:35;;;;;;;36.92;33.88;;;;;;;;;;5003420;28;20200;-44
2023/11/22 10:41:04;;;;;;;24.70;22.70;;;;;;;;;;5003458;28;20176;-44
2023/11/22 10:43:32;;;;;;;21.40;19.83;;;;;;;;;;5011017;28;20197;-44
2023/11/22 10:45:58;;;;;;;24.48;22.65;;;;;;;;;;4996403;28;20197;-44
2023/11/22 10:48:25;;;;;;;23.30;21.50;;;;;;;;;;5015211;28;20218;-44
2023/11/22 10:50:56;;;;;;;55.33;45.03;;;;;;;;;;4998933;28;20323;-44
2023/11/22 10:53:27;;;;;;;37.85;34.55;;;;;;;;;;5008277;28;20651;-44
2023/11/22 10:55:57;;;;;;;42.65;39.50;;;;;;;;;;5005282;28;20583;-44
2023/11/22 10:58:25;;;;;;;32.28;30.35;;;;;;;;;;5001040;28;20224;-44
2023/11/22 11:00:51;;;;;;;42.83;39.65;;;;;;;;;;5012820;28;20712;-44
2023/11/22 11:03:20;;;;;;;23.23;21.53;;;;;;;;;;4995257;28;20241;-44
2023/11/22 11:05:51;;;;;;;32.17;29.35;;;;;;;;;;5010802;28;20442;-44
2023/11/22 11:08:19;;;;;;;23.45;21.90;;;;;;;;;;5010357;28;20196;-44
2023/11/22 11:10:46;;;;;;;23.52;21.92;;;;;;;;;;5013876;28;20166;-44
2023/11/22 11:13:13;;;;;;;24.17;22.63;;;;;;;;;;5011527;28;20184;-44
2023/11/22 11:15:39;;;;;;;28.08;26.05;;;;;;;;;;5010921;28;20264;-44
2023/11/22 11:18:06;;;;;;;26.02;24.17;;;;;;;;;;4994787;28;20603;-44
2023/11/22 11:20:33;;;;;;;23.63;22.05;;;;;;;;;;4998819;28;20189;-44
2023/11/22 11:23:02;;;;;;;22.65;21.10;;;;;;;;;;5008935;28;20749;-44
2023/11/22 11:25:28;;;;;;;30.90;28.60;;;;;;;;;;5004037;28;20572;-45
2023/11/22 11:27:58;;;;;;;23.97;22.40;;;;;;;;;;5012694;28;20192;-44
2023/11/22 11:30:33;;;;;;;24.13;22.42;;;;;;;;;;5010676;28;20874;-44
2023/11/22 11:32:59;;;;;;;26.55;24.65;;;;;;;;;;5013154;28;20548;-44
2023/11/22 11:35:46;;;;;;;24.17;22.50;;;;;;;;;;5009785;28;20172;-44
2023/11/22 11:38:13;;;;;;;21.58;20.08;;;;;;;;;;5012420;28;20427;-44
2023/11/22 11:40:40;;;;;;;29.70;27.15;;;;;;;;;;5011827;28;20239;-44
2023/11/22 11:43:06;;;;;;;21.48;19.98;;;;;;;;;;5002313;28;20212;-44
2023/11/22 11:45:36;;;;;;;29.35;26.98;;;;;;;;;;5002794;28;20217;-45
2023/11/22 11:48:02;;;;;;;23.53;21.93;;;;;;;;;;5011372;28;20642;-44
2023/11/22 11:50:28;;;;;;;22.23;20.73;;;;;;;;;;5013777;28;20434;-44
2023/11/22 11:52:54;;;;;;;23.07;21.47;;;;;;;;;;4994463;28;20404;-44
2023/11/22 11:55:20;;;;;;;22.90;21.30;;;;;;;;;;5009586;28;20447;-44
2023/11/22 11:57:46;;;;;;;27.02;25.13;;;;;;;;;;5008533;28;20431;-44
2023/11/22 12:00:14;;;;;;;23.45;21.95;;;;;;;;;;5012432;28;20663;-44
2023/11/22 12:02:40;;;;;;;22.67;21.27;;;;;;;;;;5012569;28;20270;-44
2023/11/22 12:05:08;;;;;;;23.83;22.25;;;;;;;;;;5012711;28;20691;-45
2023/11/22 12:07:35;;;;;;;22.80;21.35;;;;;;;;;;4993816;28;20200;-44
2023/11/22 12:10:01;;;;;;;22.80;21.30;;;;;;;;;;5009256;28;20164;-44
2023/11/22 12:12:28;;;;;;;24.77;23.17;;;;;;;;;;5013078;28;20646;-45
2023/11/22 12:14:55;;;;;;;22.60;21.00;;;;;;;;;;5006001;28;20716;-44
2023/11/22 12:17:21;;;;;;;30.58;28.08;;;;;;;;;;4996202;28;20207;-45
2023/11/22 12:19:48;;;;;;;24.13;22.40;;;;;;;;;;5012419;28;20180;-44
2023/11/22 12:22:16;;;;;;;21.38;19.75;;;;;;;;;;5012110;28;20857;-44
2023/11/22 12:24:43;;;;;;;22.30;20.77;;;;;;;;;;5010719;28;20172;-44
2023/11/22 12:27:10;;;;;;;20.92;19.40;;;;;;;;;;5010133;28;20192;-44
2023/11/22 12:29:41;;;;;;;22.67;21.10;;;;;;;;;;5012050;28;20195;-44
2023/11/22 12:32:07;;;;;;;20.42;19.02;;;;;;;;;;5015220;28;20512;-45
2023/11/22 12:34:33;;;;;;;23.65;22.05;;;;;;;;;;5030298;28;20179;-45
2023/11/22 12:36:59;;;;;;;26.63;24.92;;;;;;;;;;5012473;28;20200;-44
2023/11/22 12:39:26;;;;;;;26.20;24.40;;;;;;;;;;5009395;28;20230;-44
2023/11/22 12:41:53;;;;;;;22.70;21.20;;;;;;;;;;5011559;28;20462;-45
2023/11/22 12:44:19;;;;;;;21.73;20.08;;;;;;;;;;5008903;28;20655;-44
2023/11/22 12:46:56;;;;;;;28.60;26.42;;;;;;;;;;5009214;28;20228;-44
2023/11/22 12:49:23;;;;;;;24.63;22.75;;;;;;;;;;5008977;28;20171;-44
2023/11/22 12:51:52;;;;;;;24.60;22.70;;;;;;;;;;5011718;28;20176;-44
2023/11/22 12:54:21;;;;;;;24.15;22.48;;;;;;;;;;5011885;28;20262;-44
2023/11/22 12:56:54;;;;;;;25.38;23.50;;;;;;;;;;5010358;28;20246;-44
2023/11/22 12:59:19;;;;;;;29.80;27.60;;;;;;;;;;5009449;28;20172;-44
2023/11/22 13:01:46;;;;;;;23.17;21.57;;;;;;;;;;5010122;28;20205;-45
2023/11/22 13:04:14;;;;;;;25.83;23.90;;;;;;;;;;5009041;28;20578;-45
2023/11/22 13:06:40;;;;;;;25.98;24.08;;;;;;;;;;5010763;28;20184;-45
2023/11/22 13:09:06;;;;;;;27.57;25.37;;;;;;;;;;5011284;28;20330;-45
2023/11/22 13:11:33;;;;;;;22.90;21.30;;;;;;;;;;5010961;28;20407;-44
2023/11/22 13:13:59;;;;;;;23.83;22.23;;;;;;;;;;5007554;28;20175;-44
2023/11/22 13:16:25;;;;;;;23.58;21.98;;;;;;;;;;4998889;28;20188;-44
2023/11/22 13:18:51;;;;;;;26.17;24.20;;;;;;;;;;5008854;28;20425;-45
2023/11/22 13:21:16;;;;;;;21.27;19.77;;;;;;;;;;4992634;28;20441;-44
2023/11/22 13:23:42;;;;;;;23.20;21.50;;;;;;;;;;5011193;28;20513;-44
2023/11/22 13:26:12;;;;;;;22.03;20.23;;;;;;;;;;4997074;28;20416;-44
2023/11/22 13:28:40;;;;;;;21.65;20.10;;;;;;;;;;5003466;28;20429;-44
2023/11/22 13:31:07;;;;;;;146.73;54.03;;;;;;;;;;5004575;28;20268;-45
2023/11/22 13:33:33;;;;;;;23.17;21.45;;;;;;;;;;4995889;28;20176;-44
2023/11/22 13:35:59;;;;;;;228.63;72.50;;;;;;;;;;5011958;28;20179;-44
2023/11/22 13:38:25;;;;;;;221.30;72.33;;;;;;;;;;4992871;28;20444;-44
2023/11/22 13:40:51;;;;;;;231.70;74.80;;;;;;;;;;5007401;28;20417;-44
2023/11/22 13:43:18;;;;;;;167.27;58.40;;;;;;;;;;5000853;28;20519;-44
2023/11/22 13:45:45;;;;;;;34.50;25.15;;;;;;;;;;4998755;28;20920;-44
2023/11/22 13:48:11;;;;;;;233.93;77.47;;;;;;;;;;5008729;28;20205;-43
2023/11/22 13:50:37;;;;;;;233.95;77.05;;;;;;;;;;4992357;28;20256;-44
2023/11/22 13:53:04;;;;;;;234.35;75.85;;;;;;;;;;5011101;28;20201;-44
2023/11/22 13:55:30;;;;;;;235.38;77.45;;;;;;;;;;4996752;28;20660;-44
2023/11/22 13:57:57;;;;;;;236.75;79.63;;;;;;;;;;5002719;28;20198;-45
2023/11/22 14:00:26;;;;;;;233.23;76.40;;;;;;;;;;5010150;28;20648;-44
2023/11/22 14:02:55;;;;;;;231.40;73.38;;;;;;;;;;5008434;28;20200;-44
2023/11/22 14:05:21;;;;;;;231.43;73.30;;;;;;;;;;4992070;28;20300;-45
2023/11/22 14:07:48;;;;;;;234.85;79.07;;;;;;;;;;5011186;28;20199;-44
2023/11/22 14:10:16;;;;;;;232.20;77.07;;;;;;;;;;4996321;28;20257;-44
2023/11/22 14:12:42;;;;;;;228.38;70.63;;;;;;;;;;5003449;28;20259;-44
2023/11/22 14:15:10;;;;;;;231.23;77.03;;;;;;;;;;5003844;28;20633;-44
2023/11/22 14:17:38;;;;;;;235.27;78.15;;;;;;;;;;4994145;28;20195;-44
2023/11/22 14:20:06;;;;;;;229.02;71.82;;;;;;;;;;5010165;28;20636;-44
2023/11/22 14:22:32;;;;;;;225.50;70.70;;;;;;;;;;4992093;28;20203;-45